YRMH weather

Royal Melbourne Hospital Helipad
Melbourne, Victoria, Australia

Public forecast

Using degrees Celsius for public forecast. Weather courtesy of forecast.io.

Closest aviation weather report (METAR) to Royal Melbourne Hospital Helipad

Closest report is Melbourne Essendon Airport, 5.0 nm (9.2 km) NNW. Retrieved 2019/10/17 22:00 UTC (22 minutes ago):

YMEN 172200Z AUTO 35010KT 9999 // NCD 11/05 Q1015

Closest aviation forecast (TAF) to Royal Melbourne Hospital Helipad

Forecast is more than 12 hours old.

Closest forecast is Melbourne International Airport, 9.3 nm (17.2 km) NW. Retrieved 2019/10/17 06:00 UTC (16 hours ago):

TAF YMML 170505Z 1706/1812 25015G25KT 9999 FEW030 SCT040 BECMG 1708/1709 26010KT 9999 FEW030 FEW045 FM171400 35008KT CAVOK FM172200 32018G28KT CAVOK FM180600 30014KT CAVOK FM180900 26015G25KT 9999 -SHRA FEW040 BKN050 INTER 1809/1812 5000 SHRA SCT020